createdAt,value
2022-10-18T00:01:51.888Z,102107.44
2022-10-18T00:04:54.847Z,102106.78
2022-10-18T00:07:57.670Z,102111.56
2022-10-18T00:11:00.389Z,102103.09
2022-10-18T00:14:03.214Z,102104.91
2022-10-18T00:17:06.029Z,102113.16
2022-10-18T00:20:11.660Z,102109.03
2022-10-18T00:23:14.499Z,102109.88
2022-10-18T00:26:20.976Z,102102.78
2022-10-18T00:29:24.104Z,102100.16
2022-10-18T00:32:27.708Z,102087.94
2022-10-18T00:35:30.664Z,102079.97
2022-10-18T00:38:33.376Z,102097.03
2022-10-18T00:41:38.284Z,102090.06
2022-10-18T00:44:41.009Z,102084.25
2022-10-18T00:47:48.208Z,102071.69
2022-10-18T00:50:53.137Z,102066.22
2022-10-18T00:53:55.848Z,102055.44
2022-10-18T00:56:59.094Z,102054.47
2022-10-18T01:00:02.620Z,102055.13
2022-10-18T01:03:06.045Z,102052.28
2022-10-18T01:06:09.658Z,102059.94
2022-10-18T01:09:32.577Z,102049.97
2022-10-18T01:12:56.879Z,102052.78
2022-10-18T01:16:17.826Z,102046.81
2022-10-18T01:19:46.938Z,102051.44
2022-10-18T01:23:04.822Z,102045.97
2022-10-18T01:26:29.400Z,102036.53
2022-10-18T01:29:57.057Z,102034.88
2022-10-18T01:33:11.463Z,102033.38
2022-10-18T01:36:29.699Z,102028.59
2022-10-18T01:39:38.372Z,102022.00
2022-10-18T01:42:41.257Z,102024.47
2022-10-18T01:45:44.035Z,102019.34
2022-10-18T01:48:47.679Z,102032.06
2022-10-18T01:51:50.709Z,102029.28
2022-10-18T01:54:55.830Z,102036.06
2022-10-18T01:58:28.181Z,102031.91
2022-10-18T02:01:49.144Z,102036.50
2022-10-18T02:04:59.212Z,102028.69
2022-10-18T02:08:22.787Z,102030.50
2022-10-18T02:11:29.699Z,102026.94
2022-10-18T02:14:33.389Z,102021.84
2022-10-18T02:17:37.993Z,102026.22
2022-10-18T02:20:42.232Z,102031.81
2022-10-18T02:23:46.956Z,102029.47
2022-10-18T02:26:50.106Z,102030.59
2022-10-18T02:29:53.307Z,102027.56
2022-10-18T02:33:04.519Z,102027.66
2022-10-18T02:36:18.373Z,102027.13
2022-10-18T02:39:29.694Z,102027.09
2022-10-18T02:42:37.509Z,102035.31
2022-10-18T02:45:40.558Z,102040.44
2022-10-18T02:48:43.321Z,102036.94
2022-10-18T02:51:46.444Z,102042.22
2022-10-18T02:54:49.155Z,102041.19
2022-10-18T02:57:52.351Z,102048.09
2022-10-18T03:00:58.269Z,102042.16
2022-10-18T03:04:02.015Z,102044.47
2022-10-18T03:07:04.882Z,102042.97
2022-10-18T03:10:08.226Z,102048.25
2022-10-18T03:13:11.072Z,102042.22
2022-10-18T03:16:13.971Z,102038.47
2022-10-18T03:19:16.757Z,102037.94
2022-10-18T03:22:19.644Z,102032.41
2022-10-18T03:25:22.412Z,102031.06
2022-10-18T03:28:25.311Z,102037.34
2022-10-18T03:31:28.369Z,102029.78
2022-10-18T03:34:31.133Z,102019.34
2022-10-18T03:37:34.026Z,102027.66
2022-10-18T03:40:37.294Z,102025.88
2022-10-18T03:43:40.508Z,102022.28
2022-10-18T03:46:43.246Z,102027.69
2022-10-18T03:49:46.028Z,102024.34
2022-10-18T03:52:48.740Z,102030.69
2022-10-18T03:55:53.086Z,102034.16
2022-10-18T03:58:57.243Z,102037.59
2022-10-18T04:02:00.226Z,102043.88
2022-10-18T04:05:03.259Z,102038.59
2022-10-18T04:08:06.071Z,102033.19
2022-10-18T04:11:10.946Z,102044.81
2022-10-18T04:14:13.835Z,102042.94
2022-10-18T04:17:16.806Z,102034.69
2022-10-18T04:20:20.278Z,102027.06
2022-10-18T04:23:23.136Z,102032.59
2022-10-18T04:26:26.179Z,102022.56
2022-10-18T04:29:28.990Z,102027.13
2022-10-18T04:32:31.895Z,102028.19
2022-10-18T04:35:34.620Z,102016.06
2022-10-18T04:38:37.371Z,102021.50
2022-10-18T04:41:40.183Z,102027.91
2022-10-18T04:44:43.006Z,102029.72
2022-10-18T04:47:45.734Z,102032.34
2022-10-18T04:50:49.998Z,102028.44
2022-10-18T04:53:52.780Z,102033.97
2022-10-18T04:56:55.727Z,102033.50
2022-10-18T04:59:58.700Z,102032.00
2022-10-18T05:03:01.420Z,102028.53
2022-10-18T05:06:05.530Z,102039.38
2022-10-18T05:09:08.492Z,102039.22
2022-10-18T05:12:11.271Z,102031.06
2022-10-18T05:15:14.138Z,102039.06
2022-10-18T05:18:17.021Z,102034.22
2022-10-18T05:21:19.869Z,102034.47
2022-10-18T05:24:25.473Z,102039.81
2022-10-18T05:27:30.621Z,102039.50
2022-10-18T05:30:33.999Z,102031.22
2022-10-18T05:33:37.785Z,102035.22
2022-10-18T05:36:40.658Z,102030.72
2022-10-18T05:39:43.525Z,102030.50
2022-10-18T05:42:46.272Z,102033.78
2022-10-18T05:45:50.397Z,102023.09
2022-10-18T05:48:53.155Z,102021.38
2022-10-18T05:51:58.886Z,102025.72
2022-10-18T05:55:03.854Z,102023.78
2022-10-18T05:58:06.924Z,102020.44
2022-10-18T06:01:11.770Z,102025.34
2022-10-18T06:04:14.939Z,102026.63
2022-10-18T06:07:17.715Z,102027.66
2022-10-18T06:10:23.522Z,102025.88
2022-10-18T06:13:26.644Z,102029.97
2022-10-18T06:16:32.397Z,102028.00
2022-10-18T06:19:39.867Z,102025.03
2022-10-18T06:22:43.883Z,102023.41
2022-10-18T06:25:46.726Z,102021.03
2022-10-18T06:28:50.511Z,102025.19
2022-10-18T06:31:53.589Z,102027.06
2022-10-18T06:35:03.230Z,102029.56
2022-10-18T06:38:06.439Z,102031.63
2022-10-18T06:41:10.446Z,102023.09
2022-10-18T06:44:14.573Z,102025.31
2022-10-18T06:47:17.412Z,102011.09
2022-10-18T06:50:20.295Z,102021.75
2022-10-18T06:53:25.547Z,102018.72
2022-10-18T06:56:28.766Z,102027.53
2022-10-18T06:59:31.885Z,102028.97
2022-10-18T07:02:35.010Z,102023.78
2022-10-18T07:05:38.518Z,102022.81
2022-10-18T07:08:44.894Z,102024.81
2022-10-18T07:11:48.034Z,102009.53
2022-10-18T07:14:50.983Z,102009.75
2022-10-18T07:17:53.736Z,102014.47
2022-10-18T07:20:57.448Z,102008.28
2022-10-18T07:24:00.242Z,102005.03
2022-10-18T07:27:03.087Z,101998.75
2022-10-18T07:30:07.814Z,101992.69
2022-10-18T07:33:11.473Z,101999.50
2022-10-18T07:36:15.888Z,101990.81
2022-10-18T07:39:19.281Z,101983.34
2022-10-18T07:42:22.380Z,101979.22
2022-10-18T07:45:25.506Z,101985.06
2022-10-18T07:48:28.934Z,101985.53
2022-10-18T07:51:33.004Z,101987.94
2022-10-18T07:54:35.916Z,101980.78
2022-10-18T07:57:38.749Z,101974.72
2022-10-18T08:00:42.154Z,101973.16
2022-10-18T08:03:45.034Z,101985.91
2022-10-18T08:06:47.953Z,101980.50
2022-10-18T08:09:50.891Z,101979.53
2022-10-18T08:12:54.519Z,101977.56
2022-10-18T08:16:06.295Z,101973.97
2022-10-18T08:19:09.172Z,101972.28
2022-10-18T08:22:11.967Z,101960.56
2022-10-18T08:25:15.639Z,101956.31
2022-10-18T08:28:18.348Z,101949.97
2022-10-18T08:31:21.162Z,101946.81
2022-10-18T08:34:24.149Z,101957.88
2022-10-18T08:37:27.010Z,101954.66
2022-10-18T08:40:34.859Z,101943.31
2022-10-18T08:43:47.337Z,101948.34
2022-10-18T08:46:53.095Z,101952.13
2022-10-18T08:50:07.707Z,101949.19
2022-10-18T08:53:21.121Z,101951.81
2022-10-18T08:56:27.946Z,101945.44
2022-10-18T09:09:41.906Z,101921.13
2022-10-18T09:13:55.099Z,101924.78
2022-10-18T09:17:27.297Z,101916.53
2022-10-18T09:21:00.245Z,101922.16
2022-10-18T09:24:17.140Z,101916.94
2022-10-18T09:27:22.718Z,101912.75
2022-10-18T09:30:49.897Z,101930.22
2022-10-18T09:34:06.349Z,101919.22
2022-10-18T09:37:16.285Z,101922.38
2022-10-18T09:40:26.893Z,101920.84
2022-10-18T09:44:00.782Z,101913.97
2022-10-18T09:47:16.853Z,101902.81
2022-10-18T09:50:28.122Z,101900.81
2022-10-18T09:53:37.103Z,101894.66
2022-10-18T09:56:47.619Z,101904.50
2022-10-18T09:59:55.057Z,101897.41
2022-10-18T10:03:00.622Z,101906.81
2022-10-18T10:06:16.809Z,101888.69
2022-10-18T10:09:26.965Z,101891.63
2022-10-18T10:12:32.698Z,101884.41
2022-10-18T10:15:38.206Z,101874.84
2022-10-18T10:18:43.879Z,101862.94
2022-10-18T10:21:50.328Z,101857.00
2022-10-18T10:24:54.984Z,101847.00
2022-10-18T10:28:20.394Z,101842.91
2022-10-18T10:31:46.035Z,101846.47
2022-10-18T10:34:49.424Z,101833.88
2022-10-18T10:37:54.652Z,101829.16
2022-10-18T10:40:59.791Z,101827.94
2022-10-18T10:44:08.848Z,101822.56
2022-10-18T10:47:33.248Z,101815.75
2022-10-18T10:50:54.413Z,101813.00
2022-10-18T10:54:05.994Z,101808.06
2022-10-18T10:57:12.749Z,101796.94
2022-10-18T11:00:34.396Z,101788.84
2022-10-18T11:03:37.435Z,101783.22
2022-10-18T11:06:55.993Z,101766.72
2022-10-18T11:10:12.848Z,101768.28
2022-10-18T11:13:31.663Z,101765.59
2022-10-18T11:17:07.698Z,101764.00
2022-10-18T11:20:23.561Z,101762.25
2022-10-18T11:23:32.374Z,101757.09
2022-10-18T11:27:01.383Z,101751.63
2022-10-18T11:30:35.087Z,101741.34
2022-10-18T11:34:10.073Z,101733.59
2022-10-18T11:38:06.451Z,101722.72
2022-10-18T11:41:31.793Z,101727.22
2022-10-18T11:45:02.951Z,101716.56
2022-10-18T11:48:06.218Z,101722.22
2022-10-18T11:51:34.169Z,101714.44
2022-10-18T11:55:05.325Z,101710.59
2022-10-18T11:58:18.445Z,101700.94
2022-10-18T12:01:33.331Z,101694.06
2022-10-18T12:04:53.062Z,101698.50
2022-10-18T12:08:47.602Z,101676.72
2022-10-18T12:12:02.757Z,101668.78
2022-10-18T12:15:20.313Z,101658.97
2022-10-18T12:18:30.407Z,101648.88
2022-10-18T12:21:34.668Z,101648.28
2022-10-18T12:24:38.037Z,101638.16
2022-10-18T12:27:49.739Z,101630.81
2022-10-18T12:31:27.269Z,101631.34
2022-10-18T12:34:43.990Z,101622.56
2022-10-18T12:38:00.133Z,101619.19
2022-10-18T12:41:04.410Z,101619.94
2022-10-18T12:44:25.669Z,101617.69
2022-10-18T12:47:30.458Z,101625.88
2022-10-18T12:50:37.790Z,101623.19
2022-10-18T12:53:42.414Z,101613.22
2022-10-18T12:56:47.705Z,101614.25
2022-10-18T12:59:50.758Z,101616.78
2022-10-18T13:03:19.135Z,101609.25
2022-10-18T13:06:23.652Z,101605.38
2022-10-18T13:09:30.988Z,101594.09
2022-10-18T13:12:58.876Z,101595.63
2022-10-18T13:16:24.025Z,101594.81
2022-10-18T13:19:32.876Z,101579.38
2022-10-18T13:23:08.294Z,101586.22
2022-10-18T13:26:26.927Z,101585.84
2022-10-18T13:29:40.979Z,101580.28
2022-10-18T13:33:08.656Z,101580.38
2022-10-18T13:36:22.583Z,101582.72
2022-10-18T13:39:27.312Z,101576.19
2022-10-18T13:42:33.007Z,101573.63
2022-10-18T13:45:54.700Z,101573.47
2022-10-18T13:49:06.629Z,101574.41
2022-10-18T13:52:27.607Z,101574.41
2022-10-18T13:56:11.835Z,101563.25
2022-10-18T13:59:37.852Z,101569.88
2022-10-18T14:02:58.694Z,101567.81
2022-10-18T14:06:10.471Z,101567.19
2022-10-18T14:12:50.095Z,101557.94
2022-10-18T14:16:00.261Z,101564.41
2022-10-18T14:19:15.159Z,101556.78
2022-10-18T14:22:54.923Z,101554.91
2022-10-18T14:26:15.106Z,101556.53
2022-10-18T14:29:20.731Z,101551.38
2022-10-18T14:32:29.387Z,101552.38
2022-10-18T14:35:35.843Z,101548.84
2022-10-18T14:39:06.314Z,101544.06
2022-10-18T14:42:20.884Z,101543.31
2022-10-18T14:45:24.502Z,101536.13
2022-10-18T14:48:27.455Z,101539.63
2022-10-18T14:51:35.701Z,101541.19
2022-10-18T14:54:38.883Z,101530.66
2022-10-18T14:57:41.792Z,101532.19
2022-10-18T15:00:48.478Z,101531.41
2022-10-18T15:03:57.529Z,101527.06
2022-10-18T15:07:06.872Z,101522.69
2022-10-18T15:10:35.297Z,101516.00
2022-10-18T15:13:48.034Z,101515.28
2022-10-18T15:16:54.223Z,101508.03
2022-10-18T15:20:06.232Z,101512.28
2022-10-18T15:23:24.019Z,101503.97
2022-10-18T15:26:30.939Z,101503.38
2022-10-18T15:29:36.879Z,101503.28
2022-10-18T15:32:49.096Z,101498.84
2022-10-18T15:35:54.098Z,101500.09
2022-10-18T15:39:18.561Z,101500.03
2022-10-18T15:42:38.441Z,101500.81
2022-10-18T15:49:18.511Z,101492.91
2022-10-18T15:52:37.487Z,101494.72
2022-10-18T15:55:45.420Z,101496.78
2022-10-18T15:58:49.071Z,101493.59
2022-10-18T16:01:52.165Z,101497.94
2022-10-18T16:04:55.474Z,101505.00
2022-10-18T16:07:58.426Z,101516.16
2022-10-18T16:11:01.201Z,101508.94
2022-10-18T16:14:03.982Z,101514.69
2022-10-18T16:17:07.428Z,101509.28
2022-10-18T16:20:20.329Z,101511.94
2022-10-18T16:23:26.676Z,101509.38
2022-10-18T16:26:29.806Z,101513.41
2022-10-18T16:29:33.394Z,101514.78
2022-10-18T16:32:36.146Z,101509.72
2022-10-18T16:35:38.987Z,101512.66
2022-10-18T16:38:42.165Z,101522.19
2022-10-18T16:41:45.683Z,101534.16
2022-10-18T16:44:49.256Z,101536.66
2022-10-18T16:47:52.063Z,101527.03
2022-10-18T16:50:56.847Z,101521.16
2022-10-18T16:53:59.616Z,101524.28
2022-10-18T16:57:02.468Z,101512.59
2022-10-18T17:00:05.572Z,101515.88
2022-10-18T17:03:10.133Z,101521.47
2022-10-18T17:06:22.313Z,101528.06
2022-10-18T17:09:25.137Z,101534.84
2022-10-18T17:12:28.041Z,101530.34
2022-10-18T17:15:32.946Z,101532.03
2022-10-18T17:18:37.936Z,101542.50
2022-10-18T17:21:40.734Z,101540.22
2022-10-18T17:24:43.470Z,101540.81
2022-10-18T17:27:46.982Z,101539.38
2022-10-18T17:30:56.905Z,101545.69
2022-10-18T17:34:02.172Z,101540.34
2022-10-18T17:37:05.703Z,101544.63
2022-10-18T17:40:09.874Z,101541.78
2022-10-18T17:43:14.017Z,101549.94
2022-10-18T17:46:18.001Z,101555.28
2022-10-18T17:49:22.262Z,101544.78
2022-10-18T17:52:25.246Z,101543.28
2022-10-18T17:55:30.288Z,101549.81
2022-10-18T17:58:33.529Z,101547.50
2022-10-18T18:01:36.521Z,101554.63
2022-10-18T18:04:39.380Z,101550.09
2022-10-18T18:07:42.374Z,101537.13
2022-10-18T18:10:45.375Z,101533.59
2022-10-18T18:13:48.228Z,101529.91
2022-10-18T18:16:51.216Z,101532.50
2022-10-18T18:19:54.310Z,101533.06
2022-10-18T18:22:57.096Z,101538.94
2022-10-18T18:26:00.891Z,101536.78
2022-10-18T18:29:04.181Z,101530.88
2022-10-18T18:32:08.163Z,101531.63
2022-10-18T18:35:11.893Z,101523.78
2022-10-18T18:38:14.764Z,101523.75
2022-10-18T18:41:23.210Z,101524.25
2022-10-18T18:44:26.052Z,101513.16
2022-10-18T18:47:28.839Z,101519.47
2022-10-18T18:50:32.026Z,101508.97
2022-10-18T18:53:35.124Z,101512.41
2022-10-18T18:56:38.285Z,101498.41
2022-10-18T18:59:41.247Z,101500.06
2022-10-18T19:02:44.054Z,101502.53
2022-10-18T19:05:46.841Z,101496.88
2022-10-18T19:08:50.391Z,101495.56
2022-10-18T19:11:55.698Z,101492.41
2022-10-18T19:14:58.409Z,101489.75
2022-10-18T19:18:01.273Z,101494.78
2022-10-18T19:21:04.240Z,101493.19
2022-10-18T19:24:07.575Z,101487.09
2022-10-18T19:27:14.375Z,101485.34
2022-10-18T19:30:19.929Z,101487.28
2022-10-18T19:33:41.144Z,101500.91
2022-10-18T19:36:48.867Z,101496.97
2022-10-18T19:39:51.751Z,101496.97
2022-10-18T19:42:54.511Z,101498.25
2022-10-18T19:46:02.752Z,101486.81
2022-10-18T19:49:05.786Z,101502.28
2022-10-18T19:52:08.971Z,101499.63
2022-10-18T19:55:11.824Z,101495.31
2022-10-18T19:58:14.711Z,101493.19
2022-10-18T20:01:18.700Z,101491.66
2022-10-18T20:04:21.854Z,101489.47
2022-10-18T20:07:24.704Z,101488.00
2022-10-18T20:10:31.057Z,101488.91
2022-10-18T20:13:34.130Z,101482.31
2022-10-18T20:16:37.144Z,101490.41
2022-10-18T20:19:40.021Z,101483.66
2022-10-18T20:22:42.733Z,101476.63
2022-10-18T20:25:58.604Z,101484.34
2022-10-18T20:29:01.590Z,101482.38
2022-10-18T20:32:04.537Z,101472.69
2022-10-18T20:35:07.455Z,101466.28
2022-10-18T20:38:10.321Z,101471.78
2022-10-18T20:41:22.757Z,101466.84
2022-10-18T20:44:27.005Z,101462.44
2022-10-18T20:47:30.423Z,101462.97
2022-10-18T20:50:33.963Z,101464.50
2022-10-18T20:53:37.677Z,101463.41
2022-10-18T20:56:40.500Z,101463.47
2022-10-18T20:59:43.246Z,101468.75
2022-10-18T21:02:46.019Z,101471.94
2022-10-18T21:05:48.829Z,101458.03
2022-10-18T21:08:57.005Z,101459.00
2022-10-18T21:12:00.057Z,101453.34
2022-10-18T21:15:02.876Z,101447.31
2022-10-18T21:18:06.633Z,101447.84
2022-10-18T21:21:16.168Z,101443.16
2022-10-18T21:24:20.000Z,101442.28
2022-10-18T21:27:25.931Z,101449.09
2022-10-18T21:30:29.121Z,101446.41
2022-10-18T21:33:31.862Z,101444.53
2022-10-18T21:36:36.638Z,101436.44
2022-10-18T21:39:39.350Z,101434.88
2022-10-18T21:42:42.137Z,101449.97
2022-10-18T21:45:44.934Z,101452.66
2022-10-18T21:48:51.661Z,101449.66
2022-10-18T21:51:54.483Z,101441.56
2022-10-18T21:54:57.280Z,101447.66
2022-10-18T21:58:00.108Z,101441.19
2022-10-18T22:01:23.874Z,101448.03
2022-10-18T22:04:26.735Z,101437.13
2022-10-18T22:07:29.456Z,101430.34
2022-10-18T22:10:33.577Z,101427.91
2022-10-18T22:13:36.348Z,101427.91
2022-10-18T22:16:39.335Z,101431.50
2022-10-18T22:19:43.592Z,101423.09
2022-10-18T22:22:46.552Z,101429.22
2022-10-18T22:25:50.407Z,101432.84
2022-10-18T22:29:02.387Z,101427.59
2022-10-18T22:32:05.332Z,101434.03
2022-10-18T22:35:08.101Z,101431.06
2022-10-18T22:38:10.789Z,101423.00
2022-10-18T22:41:13.842Z,101426.28
2022-10-18T22:44:16.725Z,101417.72
2022-10-18T22:47:19.550Z,101411.81
2022-10-18T22:50:23.202Z,101419.25
2022-10-18T22:53:27.115Z,101415.00
2022-10-18T22:56:30.105Z,101410.53
2022-10-18T22:59:33.524Z,101414.16
2022-10-18T23:02:36.549Z,101419.44
2022-10-18T23:05:41.058Z,101413.00
2022-10-18T23:08:43.940Z,101420.56
2022-10-18T23:11:48.303Z,101420.78
2022-10-18T23:14:51.246Z,101417.81
2022-10-18T23:17:55.050Z,101413.03
2022-10-18T23:21:07.415Z,101407.59
2022-10-18T23:24:10.248Z,101405.47
2022-10-18T23:27:13.022Z,101405.00
2022-10-18T23:30:25.363Z,101409.00
2022-10-18T23:33:28.100Z,101415.78
2022-10-18T23:36:33.163Z,101414.31
2022-10-18T23:39:35.965Z,101405.75
2022-10-18T23:42:38.949Z,101407.72
2022-10-18T23:45:42.593Z,101396.84
2022-10-18T23:48:46.362Z,101417.47
2022-10-18T23:51:49.229Z,101413.03
2022-10-18T23:54:51.918Z,101403.63
2022-10-18T23:57:54.684Z,101408.63
